Bahrain International

Airport
ICAO code: 
OBBI
Summary
ICAO Region: 
MID
Territory: 
Location: 
Al Muharraq,
Coordinates: 
Aerial View: 
26° 16' 15.002" N, 50° 38' 0.996" E
Metar
Observation
OBBI 011300Z VRB01KT 9999 FEW030 26/18 Q1014 NOSIG
Station
Bahrain International Airport
Date/Time
2021-12-01 13:00:00
Wind speed
01 kts
Lowest cloud amount
few clouds
Temperature
26°C
Dew point
18°C
Humidity
61%
QNH
1014 hPa
Weather condition
n/a

Description

International airport serving the Gulf state of Bahrain.

Climatology

Hot Desert Climate (Köppen climate classification BWh) - Hot desert climates are typically found in the subtropics where there is unbroken sunshine for the whole year due to the stable descending air and high pressure, little or no precipitation. Maximum temperatures of 40°C to 45°C are not uncommon, particularly during the warmer months of the year. During colder periods of the year, night-time temperatures can drop to freezing or below due to the exceptional radiation loss under the clear skies. However, very rarely do temperatures drop far below freezing.

Runways

Designator Length Width Surface Rops
12R/30L 2530 45 ASP Yes/Yes
12L/30R 3956 60 ASP Yes/Yes
Airport map: 
Aerial View: 

Accidents and Serious Incidents at or in the vicinity of OBBI

SKYbrary Partners:

Safety knowledge contributed by: